createdAt,value
2023-12-20T00:01:17.554Z,12.02
2023-12-20T00:03:45.358Z,11.99
2023-12-20T00:06:14.528Z,11.42
2023-12-20T00:08:42.279Z,11.38
2023-12-20T00:11:10.048Z,11.32
2023-12-20T00:13:37.778Z,11.56
2023-12-20T00:16:06.175Z,11.46
2023-12-20T00:18:33.907Z,11.54
2023-12-20T00:21:01.638Z,11.65
2023-12-20T00:23:30.704Z,11.65
2023-12-20T00:25:58.606Z,11.57
2023-12-20T00:28:26.442Z,11.28
2023-12-20T00:30:54.396Z,10.94
2023-12-20T00:33:22.253Z,10.66
2023-12-20T00:35:50.006Z,10.51
2023-12-20T00:38:17.780Z,10.42
2023-12-20T00:40:46.865Z,10.47
2023-12-20T00:43:14.674Z,10.38
2023-12-20T00:45:42.576Z,10.28
2023-12-20T00:48:10.453Z,10.27
2023-12-20T00:50:38.266Z,10.30
2023-12-20T00:53:06.862Z,10.26
2023-12-20T00:55:34.935Z,10.23
2023-12-20T00:58:04.039Z,10.20
2023-12-20T01:00:31.878Z,10.09
2023-12-20T01:02:59.614Z,10.17
2023-12-20T01:05:27.324Z,10.25
2023-12-20T01:07:55.087Z,10.30
2023-12-20T01:10:23.972Z,10.19
2023-12-20T01:12:51.730Z,10.30
2023-12-20T01:15:20.911Z,10.57
2023-12-20T01:17:48.900Z,10.38
2023-12-20T01:20:18.184Z,10.18
2023-12-20T01:22:47.163Z,10.11
2023-12-20T01:25:15.033Z,10.18
2023-12-20T01:27:42.979Z,10.15
2023-12-20T01:30:11.620Z,9.92
2023-12-20T01:32:40.738Z,9.76
2023-12-20T01:35:09.193Z,9.83
2023-12-20T01:37:36.998Z,9.87
2023-12-20T01:40:05.390Z,9.96
2023-12-20T01:42:33.099Z,9.80
2023-12-20T01:45:00.867Z,9.64
2023-12-20T01:47:29.131Z,9.45
2023-12-20T01:49:58.959Z,9.61
2023-12-20T01:52:28.529Z,9.40
2023-12-20T01:55:02.243Z,9.44
2023-12-20T01:57:30.387Z,9.64
2023-12-20T01:59:58.764Z,10.19
2023-12-20T02:02:29.599Z,10.32
2023-12-20T02:04:59.321Z,10.10
2023-12-20T02:07:27.895Z,10.17
2023-12-20T02:09:55.695Z,9.90
2023-12-20T02:12:23.843Z,10.04
2023-12-20T02:14:51.799Z,9.99
2023-12-20T02:17:19.735Z,9.92
2023-12-20T02:19:48.068Z,9.83
2023-12-20T02:22:17.537Z,9.76
2023-12-20T02:24:45.411Z,9.73
2023-12-20T02:27:14.392Z,9.95
2023-12-20T02:29:42.065Z,9.96
2023-12-20T02:32:09.761Z,10.09
2023-12-20T02:34:37.600Z,10.25
2023-12-20T02:37:05.600Z,10.22
2023-12-20T02:39:35.081Z,10.24
2023-12-20T02:42:02.775Z,10.22
2023-12-20T02:44:30.603Z,10.23
2023-12-20T02:46:58.384Z,10.10
2023-12-20T02:49:26.178Z,10.09
2023-12-20T02:51:54.068Z,10.09
2023-12-20T02:54:22.282Z,9.93
2023-12-20T02:56:51.390Z,10.11
2023-12-20T02:59:19.142Z,10.31
2023-12-20T03:01:48.444Z,10.10
2023-12-20T03:04:16.379Z,10.08
2023-12-20T03:06:44.146Z,10.25
2023-12-20T03:09:11.843Z,10.13
2023-12-20T03:11:39.601Z,10.02
2023-12-20T03:14:08.672Z,9.82
2023-12-20T03:16:37.153Z,9.81
2023-12-20T03:19:05.338Z,9.95
2023-12-20T03:21:33.223Z,10.14
2023-12-20T03:24:00.937Z,9.91
2023-12-20T03:26:28.664Z,9.93
2023-12-20T03:28:56.379Z,9.78
2023-12-20T03:31:25.563Z,10.03
2023-12-20T03:33:54.746Z,10.03
2023-12-20T03:36:22.653Z,9.90
2023-12-20T03:38:50.410Z,9.79
2023-12-20T03:41:18.156Z,10.17
2023-12-20T03:43:45.870Z,10.20
2023-12-20T03:46:13.628Z,10.47
2023-12-20T03:48:42.768Z,10.37
2023-12-20T03:51:10.524Z,10.33
2023-12-20T03:53:38.372Z,10.33
2023-12-20T03:56:06.895Z,10.39
2023-12-20T03:58:34.669Z,10.34
2023-12-20T04:01:02.383Z,10.22
2023-12-20T04:03:30.154Z,10.07
2023-12-20T04:05:59.338Z,10.11
2023-12-20T04:08:27.139Z,9.94
2023-12-20T04:10:54.882Z,9.81
2023-12-20T04:13:22.724Z,9.92
2023-12-20T04:15:52.177Z,10.10
2023-12-20T04:18:19.963Z,10.14
2023-12-20T04:20:48.002Z,10.05
2023-12-20T04:23:17.069Z,10.01
2023-12-20T04:25:44.799Z,9.89
2023-12-20T04:28:12.578Z,9.94
2023-12-20T04:30:40.488Z,9.84
2023-12-20T04:33:08.280Z,10.04
2023-12-20T04:35:36.170Z,10.29
2023-12-20T04:38:03.967Z,9.88
2023-12-20T04:40:33.039Z,9.91
2023-12-20T04:43:00.800Z,9.79
2023-12-20T04:45:28.570Z,9.78
2023-12-20T04:47:57.085Z,9.69
2023-12-20T04:50:24.855Z,9.93
2023-12-20T04:52:53.312Z,10.07
2023-12-20T04:55:21.155Z,9.96
2023-12-20T04:57:50.327Z,9.97
2023-12-20T05:00:18.670Z,9.80
2023-12-20T05:02:46.384Z,9.77
2023-12-20T05:05:16.245Z,10.12
2023-12-20T05:07:44.339Z,9.77
2023-12-20T05:10:12.585Z,9.87
2023-12-20T05:12:40.438Z,10.02
2023-12-20T05:15:10.464Z,10.07
2023-12-20T05:17:38.239Z,10.01
2023-12-20T05:20:07.245Z,10.15
2023-12-20T05:22:35.110Z,9.93
2023-12-20T05:25:03.182Z,10.14
2023-12-20T05:27:30.903Z,10.11
2023-12-20T05:29:58.965Z,9.79
2023-12-20T05:32:28.187Z,9.78
2023-12-20T05:34:56.091Z,10.07
2023-12-20T05:37:23.922Z,9.94
2023-12-20T05:39:51.713Z,10.08
2023-12-20T05:42:19.549Z,10.33
2023-12-20T05:44:47.294Z,10.25
2023-12-20T05:47:15.283Z,10.08
2023-12-20T05:49:45.088Z,9.94
2023-12-20T05:52:12.922Z,9.99
2023-12-20T05:54:40.735Z,9.89
2023-12-20T05:57:08.490Z,9.97
2023-12-20T05:59:36.165Z,10.06
2023-12-20T06:02:05.831Z,10.17
2023-12-20T06:04:33.903Z,10.22
2023-12-20T06:07:03.142Z,10.38
2023-12-20T06:09:32.348Z,10.48
2023-12-20T06:12:00.234Z,10.50
2023-12-20T06:14:28.005Z,10.14
2023-12-20T06:16:55.864Z,10.33
2023-12-20T06:19:23.679Z,10.39
2023-12-20T06:21:51.533Z,10.36
2023-12-20T06:24:20.616Z,10.03
2023-12-20T06:26:48.391Z,9.98
2023-12-20T06:29:16.213Z,9.85
2023-12-20T06:31:43.990Z,10.03
2023-12-20T06:34:11.923Z,9.87
2023-12-20T06:36:39.729Z,9.80
2023-12-20T06:39:07.496Z,9.45
2023-12-20T06:41:36.601Z,9.71
2023-12-20T06:44:04.620Z,9.68
2023-12-20T06:46:32.364Z,9.86
2023-12-20T06:49:00.196Z,10.07
2023-12-20T06:51:28.070Z,10.07
2023-12-20T06:53:55.847Z,10.06
2023-12-20T06:56:23.600Z,10.14
2023-12-20T06:58:52.744Z,10.11
2023-12-20T07:01:20.641Z,10.03
2023-12-20T07:03:48.517Z,9.77
2023-12-20T07:06:17.669Z,9.71
2023-12-20T07:08:45.692Z,9.94
2023-12-20T07:11:13.467Z,9.73
2023-12-20T07:13:41.203Z,9.68
2023-12-20T07:16:10.252Z,9.95
2023-12-20T07:18:38.116Z,10.46
2023-12-20T07:21:06.141Z,10.60
2023-12-20T07:23:33.885Z,10.55
2023-12-20T07:26:01.667Z,10.19
2023-12-20T07:28:29.397Z,10.36
2023-12-20T07:30:57.371Z,9.96
2023-12-20T07:33:26.623Z,9.61
2023-12-20T07:35:54.635Z,9.83
2023-12-20T07:38:22.468Z,10.01
2023-12-20T07:40:50.242Z,9.63
2023-12-20T07:43:17.966Z,9.47
2023-12-20T07:45:45.820Z,9.32
2023-12-20T07:48:13.598Z,9.80
2023-12-20T07:50:43.267Z,9.84
2023-12-20T07:53:10.983Z,9.92
2023-12-20T07:55:38.787Z,10.30
2023-12-20T07:58:07.225Z,10.40
2023-12-20T08:00:35.043Z,10.34
2023-12-20T08:03:04.800Z,10.10
2023-12-20T08:05:32.610Z,10.20
2023-12-20T08:08:01.661Z,10.19
2023-12-20T08:10:30.857Z,10.25
2023-12-20T08:12:57.698Z,10.25
2023-12-20T08:15:25.637Z,10.33
2023-12-20T08:17:53.434Z,10.37
2023-12-20T08:20:26.869Z,10.19
2023-12-20T08:23:01.808Z,10.13
2023-12-20T08:25:29.611Z,10.20
2023-12-20T08:27:57.353Z,10.13
2023-12-20T08:30:26.145Z,10.17
2023-12-20T08:32:54.040Z,10.29
2023-12-20T08:35:21.906Z,10.27
2023-12-20T08:37:49.625Z,10.25
2023-12-20T08:40:18.851Z,10.20
2023-12-20T08:42:46.600Z,10.27
2023-12-20T08:45:14.362Z,10.12
2023-12-20T08:47:42.347Z,10.32
2023-12-20T08:50:10.543Z,10.11
2023-12-20T08:52:38.471Z,10.60
2023-12-20T08:55:07.322Z,10.62
2023-12-20T08:57:36.523Z,10.64
2023-12-20T09:00:06.707Z,10.87
2023-12-20T09:02:37.098Z,10.72
2023-12-20T09:05:05.503Z,10.60
2023-12-20T09:07:33.619Z,10.80
2023-12-20T09:10:01.423Z,10.76
2023-12-20T09:12:29.190Z,10.60
2023-12-20T09:14:58.235Z,10.55
2023-12-20T09:17:27.634Z,10.55
2023-12-20T09:19:55.667Z,10.70
2023-12-20T09:22:23.674Z,11.11
2023-12-20T09:24:51.508Z,10.97
2023-12-20T09:27:19.284Z,10.88
2023-12-20T09:29:47.100Z,10.71
2023-12-20T09:32:16.224Z,10.80
2023-12-20T09:34:44.013Z,10.50
2023-12-20T09:37:11.868Z,10.56
2023-12-20T09:39:39.657Z,10.52
2023-12-20T09:42:08.968Z,10.79
2023-12-20T09:44:37.373Z,10.94
2023-12-20T09:47:06.367Z,11.39
2023-12-20T09:49:36.443Z,11.38
2023-12-20T09:52:08.383Z,11.20
2023-12-20T09:54:36.178Z,10.69
2023-12-20T09:57:04.047Z,10.86
2023-12-20T09:59:31.832Z,10.98
2023-12-20T10:02:00.147Z,11.10
2023-12-20T10:04:30.498Z,12.10
2023-12-20T10:07:07.137Z,11.44
2023-12-20T10:09:36.690Z,11.61
2023-12-20T10:12:06.533Z,11.33
2023-12-20T10:14:34.929Z,11.93
2023-12-20T10:17:05.005Z,11.73
2023-12-20T10:19:33.013Z,11.42
2023-12-20T10:22:02.922Z,11.81
2023-12-20T10:24:31.536Z,11.62
2023-12-20T10:27:06.657Z,11.87
2023-12-20T10:29:38.090Z,12.08
2023-12-20T10:32:25.952Z,12.04
2023-12-20T10:34:53.955Z,12.33
2023-12-20T10:37:23.395Z,12.09
2023-12-20T10:39:53.869Z,11.74
2023-12-20T10:42:23.972Z,12.08
2023-12-20T10:44:52.655Z,11.94
2023-12-20T10:47:21.659Z,12.41
2023-12-20T10:49:50.248Z,12.29
2023-12-20T10:52:19.159Z,11.65
2023-12-20T10:54:48.538Z,12.09
2023-12-20T10:57:18.746Z,12.20
2023-12-20T10:59:51.223Z,13.03
2023-12-20T11:02:19.212Z,12.44
2023-12-20T11:04:54.014Z,13.05
2023-12-20T11:07:28.051Z,13.06
2023-12-20T11:10:02.487Z,13.25
2023-12-20T11:12:40.758Z,13.57
2023-12-20T11:15:09.768Z,13.82
2023-12-20T11:17:38.151Z,13.61
2023-12-20T11:20:08.756Z,13.53
2023-12-20T11:22:39.497Z,13.40
2023-12-20T11:25:12.441Z,13.54
2023-12-20T11:27:44.290Z,12.78
2023-12-20T11:30:13.482Z,13.11
2023-12-20T11:32:42.287Z,13.01
2023-12-20T11:35:21.600Z,13.01
2023-12-20T11:37:49.830Z,12.74
2023-12-20T11:40:23.029Z,13.00
2023-12-20T11:42:51.844Z,13.37
2023-12-20T11:45:23.086Z,13.16
2023-12-20T11:47:53.028Z,13.42
2023-12-20T11:50:21.464Z,13.53
2023-12-20T11:52:49.578Z,13.47
2023-12-20T11:55:17.442Z,13.37
2023-12-20T11:57:47.169Z,13.61
2023-12-20T12:00:16.648Z,13.74
2023-12-20T12:02:46.600Z,13.98
2023-12-20T12:05:15.356Z,13.94
2023-12-20T12:07:43.392Z,13.62
2023-12-20T12:10:11.303Z,13.53
2023-12-20T12:12:39.193Z,13.39
2023-12-20T12:15:10.311Z,13.52
2023-12-20T12:17:38.274Z,13.72
2023-12-20T12:20:08.222Z,14.01
2023-12-20T12:22:37.006Z,14.14
2023-12-20T12:25:12.954Z,13.48
2023-12-20T12:27:42.826Z,13.79
2023-12-20T12:30:14.208Z,14.20
2023-12-20T12:32:42.781Z,13.84
2023-12-20T12:35:11.265Z,14.66
2023-12-20T12:37:41.603Z,14.08
2023-12-20T12:40:12.568Z,13.64
2023-12-20T12:42:40.376Z,13.78
2023-12-20T12:45:09.088Z,13.49
2023-12-20T12:47:38.598Z,13.60
2023-12-20T12:50:06.991Z,13.37
2023-12-20T12:52:36.489Z,13.52
2023-12-20T12:55:06.000Z,13.41
2023-12-20T12:57:34.745Z,13.59
2023-12-20T13:00:04.076Z,14.02
2023-12-20T13:02:31.897Z,13.86
2023-12-20T13:05:02.309Z,14.08
2023-12-20T13:07:30.250Z,14.21
2023-12-20T13:09:58.022Z,14.25
2023-12-20T13:12:25.756Z,14.34
2023-12-20T13:14:54.724Z,14.07
2023-12-20T13:17:22.585Z,13.90
2023-12-20T13:19:51.066Z,13.40
2023-12-20T13:22:20.717Z,13.52
2023-12-20T13:24:48.464Z,13.73
2023-12-20T13:27:16.211Z,14.31
2023-12-20T13:29:43.913Z,13.68
2023-12-20T13:32:11.687Z,14.16
2023-12-20T13:34:39.629Z,14.09
2023-12-20T13:37:07.479Z,13.63
2023-12-20T13:39:36.617Z,13.74
2023-12-20T13:42:04.648Z,13.98
2023-12-20T13:44:32.357Z,14.15
2023-12-20T13:47:00.120Z,13.79
2023-12-20T13:49:28.653Z,14.10
2023-12-20T13:51:56.832Z,14.39
2023-12-20T13:54:24.996Z,13.82
2023-12-20T13:57:05.922Z,13.66
2023-12-20T13:59:40.220Z,13.96
2023-12-20T14:02:07.978Z,13.86
2023-12-20T14:04:41.909Z,13.43
2023-12-20T14:07:13.045Z,14.04
2023-12-20T14:09:46.285Z,13.17
2023-12-20T14:12:16.185Z,13.67
2023-12-20T14:14:46.136Z,13.51
2023-12-20T14:17:14.007Z,13.38
2023-12-20T14:19:41.798Z,13.53
2023-12-20T14:22:09.644Z,13.77
2023-12-20T14:24:37.590Z,13.88
2023-12-20T14:27:05.403Z,14.09
2023-12-20T14:29:34.520Z,14.07
2023-12-20T14:32:03.918Z,14.07
2023-12-20T14:34:31.717Z,14.16
2023-12-20T14:36:59.531Z,14.26
2023-12-20T14:39:27.211Z,14.14
2023-12-20T14:41:55.445Z,14.57
2023-12-20T14:44:23.242Z,14.08
2023-12-20T14:46:52.425Z,14.36
2023-12-20T14:49:19.335Z,14.47
2023-12-20T14:51:48.860Z,14.32
2023-12-20T14:54:16.645Z,14.22
2023-12-20T14:56:44.439Z,13.76
2023-12-20T14:59:12.263Z,14.03
2023-12-20T15:01:41.708Z,13.91
2023-12-20T15:04:11.066Z,13.74
2023-12-20T15:06:38.864Z,13.64
2023-12-20T15:09:07.150Z,13.67
2023-12-20T15:11:35.637Z,13.46
2023-12-20T15:14:03.765Z,13.60
2023-12-20T15:16:31.609Z,13.96
2023-12-20T15:19:00.028Z,14.07
2023-12-20T15:21:33.479Z,14.00
2023-12-20T15:24:10.744Z,13.52
2023-12-20T15:26:40.556Z,13.64
2023-12-20T15:29:08.526Z,14.11
2023-12-20T15:31:36.920Z,13.94
2023-12-20T15:34:04.729Z,13.61
2023-12-20T15:36:33.924Z,13.73
2023-12-20T15:39:01.700Z,13.99
2023-12-20T15:41:29.426Z,13.70
2023-12-20T15:43:57.184Z,13.67
2023-12-20T15:46:24.984Z,13.91
2023-12-20T15:48:53.764Z,13.86
2023-12-20T15:51:23.196Z,14.27
2023-12-20T15:53:52.875Z,14.04
2023-12-20T15:56:20.812Z,13.91
2023-12-20T15:58:49.248Z,13.96
2023-12-20T16:01:17.204Z,14.27
2023-12-20T16:03:51.031Z,14.28
2023-12-20T16:06:23.130Z,13.92
2023-12-20T16:08:52.265Z,14.00
2023-12-20T16:11:20.035Z,13.84
2023-12-20T16:13:47.874Z,13.74
2023-12-20T16:16:15.744Z,13.81
2023-12-20T16:18:43.489Z,13.64
2023-12-20T16:21:11.397Z,13.85
2023-12-20T16:23:39.117Z,14.10
2023-12-20T16:26:08.250Z,14.04
2023-12-20T16:28:36.083Z,13.91
2023-12-20T16:31:04.284Z,14.08
2023-12-20T16:33:32.161Z,14.09
2023-12-20T16:36:00.007Z,13.87
2023-12-20T16:38:27.746Z,13.93
2023-12-20T16:40:56.218Z,13.77
2023-12-20T16:43:25.412Z,14.32
2023-12-20T16:45:53.202Z,14.13
2023-12-20T16:48:20.964Z,13.98
2023-12-20T16:50:48.886Z,14.07
2023-12-20T16:53:17.251Z,13.77
2023-12-20T16:55:45.845Z,13.85
2023-12-20T16:58:13.982Z,13.81
2023-12-20T17:00:43.107Z,13.58
2023-12-20T17:03:10.888Z,13.39
2023-12-20T17:05:38.723Z,13.43
2023-12-20T17:08:07.423Z,13.38
2023-12-20T17:10:35.400Z,13.80
2023-12-20T17:13:03.480Z,13.89
2023-12-20T17:15:31.304Z,14.08
2023-12-20T17:18:02.245Z,14.08
2023-12-20T17:20:30.229Z,13.79
2023-12-20T17:23:00.085Z,13.89
2023-12-20T17:25:27.870Z,14.13
2023-12-20T17:27:57.448Z,14.16
2023-12-20T17:30:25.538Z,14.13
2023-12-20T17:32:53.350Z,14.14
2023-12-20T17:35:22.555Z,13.92
2023-12-20T17:37:52.961Z,13.72
2023-12-20T17:40:21.313Z,13.16
2023-12-20T17:42:49.515Z,13.27
2023-12-20T17:45:17.489Z,13.44
2023-12-20T17:47:45.717Z,13.41
2023-12-20T17:50:13.811Z,13.57
2023-12-20T17:52:43.091Z,13.53
2023-12-20T17:55:10.976Z,13.15
2023-12-20T17:57:38.707Z,13.27
2023-12-20T18:00:15.088Z,13.40
2023-12-20T18:02:42.897Z,13.26
2023-12-20T18:05:10.683Z,13.58
2023-12-20T18:07:39.866Z,13.64
2023-12-20T18:10:10.451Z,13.71
2023-12-20T18:12:38.230Z,13.36
2023-12-20T18:15:06.698Z,13.45
2023-12-20T18:17:34.590Z,13.54
2023-12-20T18:20:04.901Z,13.43
2023-12-20T18:22:32.816Z,13.10
2023-12-20T18:25:00.761Z,13.57
2023-12-20T18:27:29.867Z,13.18
2023-12-20T18:30:05.460Z,13.19
2023-12-20T18:32:40.088Z,13.23
2023-12-20T18:35:08.591Z,13.47
2023-12-20T18:37:36.633Z,13.52
2023-12-20T18:40:04.600Z,13.56
2023-12-20T18:42:33.994Z,13.35
2023-12-20T18:45:02.347Z,13.58
2023-12-20T18:47:30.059Z,13.69
2023-12-20T18:49:57.847Z,13.44
2023-12-20T18:52:25.852Z,13.75
2023-12-20T18:54:54.783Z,13.77
2023-12-20T18:57:22.518Z,13.54
2023-12-20T18:59:51.576Z,13.78
2023-12-20T19:02:19.496Z,13.87
2023-12-20T19:04:47.375Z,13.81
2023-12-20T19:07:15.290Z,13.83
2023-12-20T19:09:43.001Z,13.80
2023-12-20T19:12:10.726Z,13.93
2023-12-20T19:14:38.429Z,13.96
2023-12-20T19:17:07.542Z,13.69
2023-12-20T19:19:36.425Z,13.79
2023-12-20T19:22:04.558Z,13.60
2023-12-20T19:24:32.365Z,13.84
2023-12-20T19:27:00.079Z,13.98
2023-12-20T19:29:27.793Z,13.68
2023-12-20T19:31:55.585Z,13.50
2023-12-20T19:34:24.977Z,13.42
2023-12-20T19:36:52.832Z,13.09
2023-12-20T19:39:20.870Z,12.84
2023-12-20T19:41:48.770Z,12.93
2023-12-20T19:44:18.535Z,12.76
2023-12-20T19:46:49.190Z,12.75
2023-12-20T19:49:16.994Z,12.74
2023-12-20T19:51:46.126Z,12.60
2023-12-20T19:54:13.893Z,12.78
2023-12-20T19:56:41.620Z,13.05
2023-12-20T19:59:09.391Z,13.19
2023-12-20T20:01:41.220Z,13.19
2023-12-20T20:04:09.609Z,12.76
2023-12-20T20:06:37.857Z,12.83
2023-12-20T20:09:07.332Z,12.88
2023-12-20T20:11:35.970Z,12.88
2023-12-20T20:14:03.961Z,12.82
2023-12-20T20:16:31.888Z,12.57
2023-12-20T20:18:59.881Z,12.72
2023-12-20T20:21:27.741Z,12.84
2023-12-20T20:23:55.595Z,12.77
2023-12-20T20:26:24.843Z,12.61
2023-12-20T20:28:52.727Z,12.80
2023-12-20T20:31:20.621Z,12.82
2023-12-20T20:33:48.510Z,12.94
2023-12-20T20:36:16.310Z,12.83
2023-12-20T20:38:44.030Z,12.81
2023-12-20T20:41:11.934Z,12.96
2023-12-20T20:43:41.337Z,13.18
2023-12-20T20:46:09.347Z,13.47
2023-12-20T20:48:44.632Z,13.38
2023-12-20T20:51:18.804Z,12.83
2023-12-20T20:53:46.560Z,12.55
2023-12-20T20:56:15.275Z,12.99
2023-12-20T20:58:44.427Z,13.17
2023-12-20T21:01:12.252Z,12.77
2023-12-20T21:03:40.052Z,13.18
2023-12-20T21:06:08.206Z,13.14
2023-12-20T21:08:36.078Z,12.78
2023-12-20T21:11:03.848Z,12.92
2023-12-20T21:13:31.612Z,12.90
2023-12-20T21:16:01.126Z,13.02
2023-12-20T21:18:29.702Z,13.18
2023-12-20T21:20:57.783Z,12.91
2023-12-20T21:23:25.508Z,12.54
2023-12-20T21:25:53.200Z,12.99
2023-12-20T21:28:22.510Z,13.06
2023-12-20T21:30:51.177Z,13.31
2023-12-20T21:33:20.448Z,13.14
2023-12-20T21:35:48.178Z,13.43
2023-12-20T21:38:15.870Z,13.38
2023-12-20T21:40:43.659Z,13.26
2023-12-20T21:43:11.502Z,13.17
2023-12-20T21:45:39.253Z,13.25
2023-12-20T21:48:09.675Z,13.33
2023-12-20T21:50:40.287Z,13.64
2023-12-20T21:53:11.089Z,13.39
2023-12-20T21:55:39.618Z,13.18
2023-12-20T21:58:09.114Z,13.50
2023-12-20T22:00:37.512Z,13.42
2023-12-20T22:03:09.433Z,12.99
2023-12-20T22:05:39.443Z,13.23
2023-12-20T22:08:08.740Z,13.37
2023-12-20T22:10:36.706Z,13.78
2023-12-20T22:13:04.636Z,13.42
2023-12-20T22:15:32.359Z,13.42
2023-12-20T22:18:00.339Z,13.69
2023-12-20T22:20:28.134Z,13.53
2023-12-20T22:22:57.232Z,13.59
2023-12-20T22:25:24.066Z,13.70
2023-12-20T22:27:51.839Z,13.65
2023-12-20T22:30:19.711Z,13.13
2023-12-20T22:32:47.470Z,13.43
2023-12-20T22:35:16.464Z,13.49
2023-12-20T22:37:46.394Z,12.97
2023-12-20T22:40:15.911Z,13.35
2023-12-20T22:42:43.705Z,13.23
2023-12-20T22:45:12.128Z,13.02
2023-12-20T22:47:38.915Z,13.48
2023-12-20T22:50:08.142Z,13.49
2023-12-20T22:52:36.099Z,13.23
2023-12-20T22:55:04.028Z,13.15
2023-12-20T22:57:33.306Z,13.47
2023-12-20T23:00:01.400Z,13.24
2023-12-20T23:02:29.211Z,13.28
2023-12-20T23:04:57.008Z,13.00
2023-12-20T23:07:25.354Z,13.31
2023-12-20T23:09:53.787Z,12.89
2023-12-20T23:12:21.820Z,12.80
2023-12-20T23:14:51.910Z,12.96
2023-12-20T23:17:19.601Z,13.12
2023-12-20T23:19:47.550Z,13.38
2023-12-20T23:22:15.340Z,13.35
2023-12-20T23:24:44.485Z,13.43
2023-12-20T23:27:12.217Z,13.44
2023-12-20T23:29:40.062Z,13.19
2023-12-20T23:32:09.267Z,13.21
2023-12-20T23:34:37.041Z,12.94
2023-12-20T23:37:05.116Z,13.27
2023-12-20T23:39:32.862Z,13.39
2023-12-20T23:42:00.610Z,13.84
2023-12-20T23:44:28.309Z,13.61
2023-12-20T23:46:56.060Z,13.59
2023-12-20T23:49:25.481Z,13.73
2023-12-20T23:51:53.652Z,13.50
2023-12-20T23:54:21.420Z,13.56
2023-12-20T23:56:49.512Z,13.26
2023-12-20T23:59:17.233Z,13.53
